Garden City, Georgia
Current Conditions -  °F | °C
As of 7:53 PM on Friday 21 Nov 2014 (Local Time) from KSAV Reporting Station
Clear Clear  
Wind Chill: 54°   Ceiling: Unl
Heat Index: 54°   Visibility: 10mi
Dew Point: 43°   Wind: 7mph
Humidity: 66%   Direction: 70°ENE
Pressure: 30.41"   Gusts: NA
Location:  32.1464°N, 81.2049°W
Report Text: KSAV 220053Z 07006KT 10SM CLR 12/06 A3041 RMK AO2 SLP297 T01220061
Loading
Personal Weather Stations






























Interactive Weather Map New forecast layout! Learn more

10-Day Weather Forecast

Advertisements
Track Severe Weather on mobile